Time;durP1;ratioP1;P1;durP2;ratioP2;P2;SDS_P1;SDS_P2;PMS_P1;PMS_P2;Temp;Humidity;BMP_temperature;BMP_pressure;BME280_temperature;BME280_humidity;BME280_pressure;Samples;Min_cycle;Max_cycle;Signal;HPM_P1;HPM_P2
2021/06/09 00:01:04;;;;;;;;;6.75;6.75;;;;;20.82;55.42;101959.28;5012829;28;45369;-79
2021/06/09 00:03:30;;;;;;;;;9.25;6.75;;;;;20.78;55.13;101957.81;5012863;28;45480;-79
2021/06/09 00:05:56;;;;;;;;;7.50;7.00;;;;;20.71;55.06;101957.31;5009587;28;45569;-79
2021/06/09 00:08:21;;;;;;;;;7.75;7.00;;;;;20.66;55.21;101956.78;5012263;28;45577;-79
2021/06/09 00:10:55;;;;;;;;;7.50;7.50;;;;;20.65;55.72;101957.75;5014647;28;45397;-78
2021/06/09 00:13:22;;;;;;;;;7.00;7.00;;;;;20.62;55.09;101952.63;5015038;28;45452;-73
2021/06/09 00:15:48;;;;;;;;;9.50;7.75;;;;;20.59;55.87;101963.50;5012013;28;45564;-79
2021/06/09 00:18:14;;;;;;;;;5.75;5.75;;;;;20.55;55.58;101953.97;5012807;28;46551;-77
2021/06/09 00:20:39;;;;;;;;;9.50;6.00;;;;;20.54;55.52;101954.94;5013507;28;45735;-78
2021/06/09 00:23:05;;;;;;;;;6.75;6.00;;;;;20.46;55.83;101952.72;5013442;28;45318;-76
2021/06/09 00:25:31;;;;;;;;;7.00;6.00;;;;;20.43;56.05;101952.91;5014624;28;45340;-78
2021/06/09 00:27:57;;;;;;;;;5.50;5.50;;;;;20.39;56.19;101955.88;5013507;28;45479;-78
2021/06/09 00:30:29;;;;;;;;;8.00;5.25;;;;;20.35;56.70;101947.22;5013256;28;45470;-76
2021/06/09 00:32:56;;;;;;;;;10.25;7.25;;;;;20.32;56.72;101955.44;5013373;28;45470;-75
2021/06/09 00:35:21;;;;;;;;;7.50;6.00;;;;;20.27;57.20;101947.72;5012411;28;45472;-76
2021/06/09 00:37:46;;;;;;;;;5.50;5.50;;;;;20.27;57.21;101946.88;5014007;28;45482;-78
2021/06/09 00:40:12;;;;;;;;;7.50;7.25;;;;;20.24;56.69;101947.06;5013506;28;45440;-78
2021/06/09 00:42:38;;;;;;;;;7.25;7.25;;;;;20.22;57.10;101949.81;5013143;28;45421;-78
2021/06/09 00:45:07;;;;;;;;;6.25;6.25;;;;;20.22;56.67;101947.16;5012857;28;45547;-78
2021/06/09 00:47:33;;;;;;;;;7.00;6.50;;;;;20.16;57.34;101936.88;5013128;28;45493;-78
2021/06/09 00:49:58;;;;;;;;;6.25;6.25;;;;;20.12;56.73;101946.03;5013316;28;45506;-78
2021/06/09 00:52:26;;;;;;;;;7.00;6.00;;;;;20.11;56.67;101944.31;5014637;28;45402;-78
2021/06/09 00:54:52;;;;;;;;;5.50;4.00;;;;;20.06;57.05;101944.63;5013147;28;45498;-78
2021/06/09 00:57:18;;;;;;;;;5.75;5.75;;;;;20.05;57.10;101944.72;5012717;28;46851;-78
2021/06/09 00:59:44;;;;;;;;;7.00;6.75;;;;;20.00;56.81;101942.34;5012727;28;45570;-78
2021/06/09 01:02:09;;;;;;;;;6.75;6.75;;;;;19.98;56.98;101938.91;5013035;28;45329;-78
2021/06/09 01:04:34;;;;;;;;;6.00;5.50;;;;;19.95;57.29;101928.44;5014247;28;45456;-78
2021/06/09 01:07:02;;;;;;;;;9.00;7.75;;;;;19.90;57.47;101933.19;5012833;28;46446;-78
2021/06/09 01:09:27;;;;;;;;;5.00;5.00;;;;;19.88;57.24;101945.75;5016341;28;45354;-77
2021/06/09 01:11:54;;;;;;;;;6.25;6.25;;;;;19.80;57.44;101934.72;5016596;28;45548;-77
2021/06/09 01:14:20;;;;;;;;;7.75;7.00;;;;;19.76;57.18;101944.72;5015403;28;45438;-78
2021/06/09 01:16:47;;;;;;;;;7.00;7.00;;;;;19.70;57.72;101936.25;5017807;28;45771;-78
2021/06/09 01:19:13;;;;;;;;;8.25;8.00;;;;;19.69;57.59;101938.06;5017339;28;45471;-78
2021/06/09 01:21:39;;;;;;;;;8.50;6.00;;;;;19.65;57.39;101930.34;5016533;28;45526;-76
2021/06/09 01:24:04;;;;;;;;;7.00;7.00;;;;;19.59;57.31;101930.72;5016103;28;45425;-79
2021/06/09 01:26:31;;;;;;;;;6.50;6.00;;;;;19.56;57.96;101931.75;5016066;28;45587;-78
2021/06/09 01:28:59;;;;;;;;;7.00;6.75;;;;;19.53;57.70;101932.81;5016485;28;45454;-77
2021/06/09 01:31:26;;;;;;;;;6.75;6.25;;;;;19.48;57.61;101924.22;5015850;28;45548;-78
2021/06/09 01:33:52;;;;;;;;;8.50;7.00;;;;;19.47;57.68;101925.19;5016321;28;45409;-79
2021/06/09 01:36:20;;;;;;;;;8.75;8.75;;;;;19.47;58.14;101935.84;5011178;28;45482;-78
2021/06/09 01:38:45;;;;;;;;;10.25;7.00;;;;;19.41;58.32;101935.34;5016234;28;45422;-78
2021/06/09 01:41:11;;;;;;;;;8.00;7.00;;;;;19.40;58.50;101930.97;5000359;28;45359;-78
2021/06/09 01:43:36;;;;;;;;;5.50;5.50;;;;;19.37;58.22;101931.16;5017669;28;45848;-78
2021/06/09 01:46:03;;;;;;;;;7.50;6.75;;;;;19.35;58.00;101930.38;5015927;28;45488;-78
2021/06/09 01:48:29;;;;;;;;;7.00;7.00;;;;;19.30;58.37;101934.19;5015760;28;45427;-78
2021/06/09 01:50:54;;;;;;;;;7.50;6.25;;;;;19.24;59.05;101929.22;5015899;28;45491;-77
2021/06/09 01:53:20;;;;;;;;;9.25;8.50;;;;;19.22;58.84;101931.16;5016161;28;45440;-78
2021/06/09 01:55:47;;;;;;;;;9.50;8.00;;;;;19.20;58.99;101930.34;5016966;28;45354;-78
2021/06/09 01:58:14;;;;;;;;;10.00;8.50;;;;;19.13;58.91;101926.34;5016883;28;45793;-77
2021/06/09 02:00:45;;;;;;;;;7.75;7.00;;;;;19.12;59.19;101923.78;5015598;28;45613;-78
2021/06/09 02:03:15;;;;;;;;;7.00;6.25;;;;;19.10;58.97;101925.69;5015468;28;45420;-78
2021/06/09 02:05:42;;;;;;;;;8.25;6.75;;;;;19.06;59.21;101918.84;5013121;28;46285;-77
2021/06/09 02:08:10;;;;;;;;;9.25;7.25;;;;;19.06;59.52;101926.84;5015788;28;45447;-80
2021/06/09 02:10:38;;;;;;;;;7.25;7.25;;;;;19.01;59.73;101927.09;5017129;28;45311;-78
2021/06/09 02:13:07;;;;;;;;;10.00;8.75;;;;;19.00;59.61;101928.91;5013122;28;45613;-79
2021/06/09 02:15:33;;;;;;;;;7.25;7.00;;;;;18.98;59.99;101927.28;5015275;28;46209;-78
2021/06/09 02:18:10;;;;;;;;;8.00;7.25;;;;;18.95;59.80;101932.78;5014139;28;45480;-78
2021/06/09 02:20:42;;;;;;;;;8.00;8.00;;;;;18.91;60.20;101928.59;5015998;28;45367;-78
2021/06/09 02:23:10;;;;;;;;;8.50;6.25;;;;;18.86;60.24;101920.00;5013911;28;45646;-78
2021/06/09 02:25:36;;;;;;;;;9.25;6.50;;;;;18.85;60.32;101931.63;5016921;28;45405;-78
2021/06/09 02:28:04;;;;;;;;;7.00;7.00;;;;;18.84;60.32;101928.06;5014244;28;45675;-78
2021/06/09 02:30:31;;;;;;;;;6.00;6.00;;;;;18.79;60.27;101914.16;5015123;28;45450;-78
2021/06/09 02:32:57;;;;;;;;;7.00;7.00;;;;;18.82;60.06;101922.00;5015326;28;45370;-78
2021/06/09 02:35:22;;;;;;;;;7.50;7.50;;;;;18.79;59.86;101911.50;5014104;28;45473;-77
2021/06/09 02:37:53;;;;;;;;;6.00;6.00;;;;;18.80;59.72;101915.91;5016075;28;45408;-78
2021/06/09 02:40:21;;;;;;;;;6.25;6.25;;;;;18.78;60.64;101923.97;5016016;28;45385;-77
2021/06/09 02:42:47;;;;;;;;;6.00;5.25;;;;;18.72;60.44;101919.00;5015194;28;45515;-77
2021/06/09 02:45:16;;;;;;;;;7.00;7.00;;;;;18.68;60.58;101913.94;5014860;28;45561;-79
2021/06/09 02:47:50;;;;;;;;;7.75;6.25;;;;;18.66;60.95;101921.13;5014714;28;45605;-78
2021/06/09 02:50:18;;;;;;;;;8.00;7.75;;;;;18.65;60.90;101924.75;4999562;28;45325;-78
2021/06/09 02:52:52;;;;;;;;;6.25;6.00;;;;;18.63;60.71;101921.31;5016271;28;45418;-78
2021/06/09 02:55:39;;;;;;;;;5.00;5.00;;;;;18.60;60.69;101918.84;5015648;28;45307;-78
2021/06/09 02:58:13;;;;;;;;;7.00;6.00;;;;;18.54;60.71;101919.19;5015384;28;45327;-78
2021/06/09 03:01:04;;;;;;;;;8.75;8.00;;;;;18.52;60.88;101925.44;5009590;28;46076;-79
2021/06/09 03:03:49;;;;;;;;;9.25;8.25;;;;;18.48;60.61;101923.06;5008358;28;45453;-78
2021/06/09 03:06:23;;;;;;;;;9.75;7.00;;;;;18.48;60.40;101918.59;5014383;28;46410;-77
2021/06/09 03:09:04;;;;;;;;;8.00;6.00;;;;;18.45;60.64;101923.25;5014669;28;45471;-78
2021/06/09 03:12:14;;;;;;;;;8.25;8.00;;;;;18.39;60.72;101927.09;5014772;28;45765;-78
2021/06/09 03:17:26;;;;;;;;;9.00;9.00;;;;;18.33;61.20;101931.94;4964095;28;45279;-78
2021/06/09 03:20:31;;;;;;;;;9.50;8.00;;;;;18.30;61.66;101930.28;4974056;28;45822;-78
2021/06/09 03:23:19;;;;;;;;;7.50;7.50;;;;;18.26;61.46;101921.59;4970884;28;45645;-78
2021/06/09 03:26:01;;;;;;;;;7.50;7.00;;;;;18.25;61.48;101927.03;4916202;28;45481;-77
2021/06/09 03:28:38;;;;;;;;;10.25;9.25;;;;;18.21;61.45;101925.47;4916063;28;46416;-79
2021/06/09 03:31:07;;;;;;;;;8.00;8.00;;;;;18.19;61.82;101922.03;4915499;28;45635;-78
2021/06/09 03:33:43;;;;;;;;;11.50;9.25;;;;;18.15;61.45;101926.66;4914599;28;45440;-77
2021/06/09 03:36:14;;;;;;;;;9.25;7.75;;;;;18.17;61.95;101931.94;4915197;28;45439;-78
2021/06/09 03:38:48;;;;;;;;;6.75;6.75;;;;;18.15;61.67;101926.66;4915738;28;46528;-77
2021/06/09 03:41:16;;;;;;;;;7.75;7.75;;;;;18.10;62.03;101918.09;4916288;28;45850;-78
2021/06/09 03:43:46;;;;;;;;;7.50;7.00;;;;;18.12;61.84;101931.31;4908036;28;45522;-78
2021/06/09 03:46:14;;;;;;;;;8.00;8.00;;;;;18.09;61.71;101927.03;4913005;28;45557;-78
2021/06/09 03:48:41;;;;;;;;;8.50;7.75;;;;;18.07;62.13;101923.59;4912734;28;46625;-78
2021/06/09 03:51:10;;;;;;;;;9.00;7.00;;;;;18.09;62.21;101926.16;4917457;28;45602;-77
2021/06/09 03:53:39;;;;;;;;;7.50;7.50;;;;;18.08;62.19;101930.63;4928614;28;45369;-78
2021/06/09 03:56:08;;;;;;;;;9.25;9.25;;;;;18.04;61.79;101922.91;4930445;28;45408;-78
2021/06/09 03:58:34;;;;;;;;;11.00;8.00;;;;;18.07;62.37;101925.41;4932161;28;46080;-77
2021/06/09 04:01:01;;;;;;;;;8.00;8.00;;;;;18.03;62.24;101924.69;4928535;28;45518;-78
2021/06/09 04:03:28;;;;;;;;;9.00;7.50;;;;;18.03;62.30;101921.19;4989989;28;45372;-79
2021/06/09 04:05:57;;;;;;;;;10.00;7.00;;;;;18.07;62.48;101928.91;5011968;28;45446;-78
2021/06/09 04:08:24;;;;;;;;;9.00;9.00;;;;;18.00;62.15;101912.41;5010911;28;46219;-78
2021/06/09 04:10:51;;;;;;;;;8.75;7.00;;;;;18.04;62.46;101915.78;5012391;28;45450;-77
2021/06/09 04:13:18;;;;;;;;;7.50;7.50;;;;;18.11;62.22;101926.91;5006808;28;45530;-78
2021/06/09 04:15:45;;;;;;;;;10.75;10.75;;;;;18.13;62.18;101927.72;5011407;28;45643;-78
2021/06/09 04:18:13;;;;;;;;;9.50;8.00;;;;;18.13;62.38;101925.91;5011397;28;46101;-78
2021/06/09 04:20:40;;;;;;;;;8.00;7.25;;;;;18.16;62.42;101920.41;5011703;28;45473;-78
2021/06/09 04:23:06;;;;;;;;;8.00;8.00;;;;;18.15;62.67;101912.50;5011789;28;45505;-77
2021/06/09 04:25:31;;;;;;;;;11.00;9.00;;;;;18.16;62.63;101919.53;5012020;28;45492;-78
2021/06/09 04:27:58;;;;;;;;;11.25;10.00;;;;;18.22;63.17;101930.72;5011512;28;46396;-76
2021/06/09 04:30:23;;;;;;;;;12.75;10.00;;;;;18.23;62.37;101924.44;5006080;28;45618;-78
2021/06/09 04:32:57;;;;;;;;;14.25;13.75;;;;;18.25;62.97;101916.38;5006523;28;45561;-75
2021/06/09 04:35:28;;;;;;;;;16.25;14.50;;;;;18.31;62.73;101924.00;5011292;28;45445;-78
2021/06/09 04:37:54;;;;;;;;;17.00;15.00;;;;;18.35;62.19;101920.22;5011148;28;46586;-78
2021/06/09 04:40:24;;;;;;;;;18.25;17.50;;;;;18.39;62.15;101934.22;5006646;28;45593;-77
2021/06/09 04:42:52;;;;;;;;;22.25;19.00;;;;;18.42;62.60;101924.25;5011176;28;45560;-76
2021/06/09 04:45:19;;;;;;;;;21.00;18.75;;;;;18.48;62.38;101926.59;5006815;28;45373;-78
2021/06/09 04:47:45;;;;;;;;;21.75;17.50;;;;;18.58;62.29;101928.69;5010407;28;46127;-79
2021/06/09 04:50:12;;;;;;;;;23.75;21.25;;;;;18.64;61.48;101931.03;5011078;28;45989;-78
2021/06/09 04:52:37;;;;;;;;;20.50;19.50;;;;;18.71;62.23;101930.59;5011775;28;45408;-76
2021/06/09 04:55:06;;;;;;;;;19.25;19.25;;;;;18.80;61.53;101931.88;5011189;28;45518;-78
2021/06/09 04:57:32;;;;;;;;;19.25;19.25;;;;;18.88;61.58;101928.75;5006135;28;46294;-79
2021/06/09 04:59:57;;;;;;;;;23.00;21.00;;;;;18.92;62.22;101932.97;5009850;28;45414;-77
2021/06/09 05:02:22;;;;;;;;;20.00;19.00;;;;;18.99;61.33;101928.97;5011242;28;45756;-78
2021/06/09 05:04:48;;;;;;;;;21.50;18.50;;;;;19.08;61.48;101931.09;5010999;28;45409;-76
2021/06/09 05:07:13;;;;;;;;;18.00;16.00;;;;;19.18;61.02;101934.94;5011161;28;45426;-78
2021/06/09 05:09:39;;;;;;;;;16.25;15.25;;;;;19.23;60.85;101937.31;5010382;28;45576;-78
2021/06/09 05:12:19;;;;;;;;;18.00;16.00;;;;;19.30;60.62;101942.19;5010868;28;46393;-77
2021/06/09 05:15:17;;;;;;;;;14.25;12.75;;;;;19.38;60.38;101938.22;5010827;28;45779;-78
2021/06/09 05:17:45;;;;;;;;;15.75;12.50;;;;;19.42;60.26;101943.28;4968611;28;46478;-78
2021/06/09 05:20:19;;;;;;;;;13.25;12.50;;;;;19.48;60.32;101942.88;4969209;28;45972;-78
2021/06/09 05:22:49;;;;;;;;;13.00;12.00;;;;;19.55;60.19;101946.88;4969161;28;45561;-78
2021/06/09 05:25:15;;;;;;;;;13.75;12.00;;;;;19.62;60.63;101946.53;4969151;28;45456;-78
2021/06/09 05:27:43;;;;;;;;;13.00;13.00;;;;;19.69;60.24;101947.88;4967006;28;45498;-76
2021/06/09 05:30:09;;;;;;;;;13.00;13.00;;;;;19.75;60.23;101940.34;4968073;28;46013;-78
2021/06/09 05:32:37;;;;;;;;;12.25;11.50;;;;;19.79;60.12;101943.69;4968620;28;45462;-77
2021/06/09 05:35:04;;;;;;;;;18.50;14.75;;;;;19.93;59.23;101948.16;4968201;28;45533;-78
2021/06/09 05:37:29;;;;;;;;;14.25;12.25;;;;;20.00;58.97;101950.34;4968964;28;46254;-78
2021/06/09 05:39:59;;;;;;;;;17.00;15.50;;;;;20.12;59.21;101954.03;4968749;28;45753;-79
2021/06/09 05:42:25;;;;;;;;;14.50;13.25;;;;;20.21;58.77;101948.13;4968414;28;45831;-79
2021/06/09 05:44:53;;;;;;;;;18.50;15.25;;;;;20.32;58.94;101944.75;4968232;28;45640;-78
2021/06/09 05:47:19;;;;;;;;;17.50;13.75;;;;;20.45;58.38;101953.66;4967565;28;45356;-79
2021/06/09 05:49:44;;;;;;;;;13.50;11.25;;;;;20.56;57.66;101950.31;4969106;28;45511;-79
2021/06/09 05:52:11;;;;;;;;;14.75;11.75;;;;;20.75;58.21;101952.66;4969482;28;45404;-77
2021/06/09 05:54:42;;;;;;;;;14.25;14.25;;;;;20.92;57.80;101947.03;5012428;28;45532;-79
2021/06/09 05:57:10;;;;;;;;;19.75;14.00;;;;;21.09;56.59;101943.22;5012698;28;46494;-77
2021/06/09 05:59:37;;;;;;;;;17.00;15.25;;;;;21.22;56.39;101937.88;5001972;28;45564;-78
2021/06/09 06:02:03;;;;;;;;;15.00;13.75;;;;;21.40;55.56;101949.16;5008130;28;45565;-79
2021/06/09 06:04:30;;;;;;;;;14.25;13.25;;;;;21.53;55.88;101933.97;5011391;28;45470;-75
2021/06/09 06:06:57;;;;;;;;;18.25;14.75;;;;;21.65;55.59;101929.56;5011120;28;47253;-76
2021/06/09 06:09:22;;;;;;;;;23.50;19.50;;;;;21.82;55.28;101942.59;5012986;28;45783;-78
2021/06/09 06:11:50;;;;;;;;;17.00;16.00;;;;;21.91;55.63;101946.44;5012753;28;45693;-78
2021/06/09 06:14:16;;;;;;;;;26.00;20.50;;;;;21.98;54.58;101945.91;5010963;28;45850;-78
2021/06/09 06:16:56;;;;;;;;;22.25;19.75;;;;;22.08;54.80;101943.41;5011535;28;45576;-78
2021/06/09 06:19:22;;;;;;;;;26.75;25.00;;;;;22.11;54.50;101944.09;5012351;28;45533;-78
2021/06/09 06:21:48;;;;;;;;;25.50;25.50;;;;;22.16;53.96;101941.06;5011676;28;45526;-82
2021/06/09 06:24:18;;;;;;;;;26.25;21.25;;;;;22.25;54.15;101948.44;5013191;28;45718;-79
2021/06/09 06:26:49;;;;;;;;;20.25;20.00;;;;;22.30;53.88;101946.28;5012792;28;45690;-78
2021/06/09 06:29:15;;;;;;;;;22.50;20.25;;;;;22.38;54.13;101951.06;5009409;28;45602;-79
2021/06/09 06:31:41;;;;;;;;;25.25;21.75;;;;;22.46;53.24;101946.00;5005626;28;45505;-79
2021/06/09 06:34:07;;;;;;;;;23.50;21.00;;;;;22.50;53.75;101943.94;5011390;28;45797;-78
2021/06/09 06:36:36;;;;;;;;;23.00;21.25;;;;;22.55;53.53;101939.97;5008146;28;45549;-79
2021/06/09 06:39:05;;;;;;;;;31.75;25.25;;;;;22.54;52.17;101932.88;5007121;28;45407;-79
2021/06/09 06:41:31;;;;;;;;;28.00;25.50;;;;;22.61;52.99;101949.38;5012563;28;45441;-79
2021/06/09 06:43:57;;;;;;;;;32.75;25.75;;;;;22.62;52.63;101951.94;5013289;28;45779;-79
2021/06/09 06:46:24;;;;;;;;;24.75;23.25;;;;;22.64;53.05;101938.41;5008497;28;46254;-83
2021/06/09 06:48:53;;;;;;;;;32.50;27.75;;;;;22.72;53.22;101948.59;5007592;28;46786;-79
2021/06/09 06:51:20;;;;;;;;;30.25;27.25;;;;;22.76;51.80;101947.34;5011998;28;45619;-79
2021/06/09 06:53:48;;;;;;;;;30.50;28.00;;;;;22.79;52.09;101947.13;5012793;28;45839;-79
2021/06/09 06:56:14;;;;;;;;;30.25;22.25;;;;;22.79;52.64;101952.50;5012729;28;46444;-78
2021/06/09 06:58:48;;;;;;;;;29.75;25.50;;;;;22.84;52.60;101953.00;5012640;28;45807;-78
2021/06/09 07:01:14;;;;;;;;;31.00;27.00;;;;;22.93;52.50;101949.66;5007712;28;45567;-78
2021/06/09 07:03:42;;;;;;;;;27.00;23.50;;;;;23.01;52.59;101954.44;5007642;28;46839;-78
2021/06/09 07:06:08;;;;;;;;;32.25;27.25;;;;;23.07;52.10;101948.59;5011995;28;45608;-78
2021/06/09 07:08:37;;;;;;;;;31.00;26.50;;;;;23.18;51.35;101946.81;5010991;28;46024;-78
2021/06/09 07:11:02;;;;;;;;;31.75;29.00;;;;;23.34;51.29;101957.22;5011538;28;45657;-78
2021/06/09 07:13:28;;;;;;;;;31.00;28.75;;;;;23.52;51.35;101954.06;5007358;28;45528;-78
2021/06/09 07:15:55;;;;;;;;;29.25;25.00;;;;;23.65;50.98;101947.66;5012187;28;46684;-81
2021/06/09 07:18:26;;;;;;;;;33.75;31.00;;;;;23.82;50.20;101948.16;5010895;28;45564;-76
2021/06/09 07:20:52;;;;;;;;;29.75;26.00;;;;;24.03;50.37;101950.94;5010157;28;46702;-78
2021/06/09 07:23:18;;;;;;;;;31.25;29.75;;;;;24.24;49.94;101953.72;4998778;28;45661;-78
2021/06/09 07:25:43;;;;;;;;;38.00;31.00;;;;;24.44;49.73;101952.97;5010670;28;46432;-77
2021/06/09 07:28:09;;;;;;;;;33.00;29.25;;;;;24.58;49.41;101949.13;5007575;28;45501;-77
2021/06/09 07:30:36;;;;;;;;;40.00;30.75;;;;;24.73;49.59;101945.16;5011811;28;47609;-79
2021/06/09 07:33:04;;;;;;;;;30.75;28.25;;;;;24.91;49.62;101950.84;5010754;28;45616;-78
2021/06/09 07:35:30;;;;;;;;;28.75;26.00;;;;;25.13;48.72;101950.75;5008888;28;46443;-78
2021/06/09 07:38:05;;;;;;;;;31.75;26.25;;;;;25.31;48.14;101942.91;5003572;28;45749;-78
2021/06/09 07:40:36;;;;;;;;;32.00;27.75;;;;;25.55;48.99;101952.56;5011367;28;45615;-78
2021/06/09 07:43:06;;;;;;;;;29.25;26.00;;;;;25.82;48.35;101949.31;5008351;28;45551;-78
2021/06/09 07:45:32;;;;;;;;;27.50;24.75;;;;;26.11;48.50;101955.66;5011141;28;46429;-79
2021/06/09 07:47:59;;;;;;;;;29.75;25.75;;;;;26.38;47.52;101946.06;5011018;28;45921;-81
2021/06/09 07:50:32;;;;;;;;;29.75;26.25;;;;;26.59;46.83;101949.53;5005351;28;45523;-78
2021/06/09 07:53:06;;;;;;;;;35.00;28.50;;;;;26.84;46.24;101949.97;5011301;28;45403;-78
2021/06/09 07:55:35;;;;;;;;;29.50;27.75;;;;;27.05;45.42;101945.25;5005604;28;46157;-77
2021/06/09 07:58:03;;;;;;;;;29.50;27.50;;;;;27.30;45.16;101950.09;5010359;28;45765;-78
2021/06/09 08:00:29;;;;;;;;;27.75;27.25;;;;;27.56;44.60;101944.00;5012640;28;45676;-77
2021/06/09 08:02:56;;;;;;;;;26.50;25.50;;;;;28.00;44.18;101950.56;5012576;28;45786;-78
2021/06/09 08:05:24;;;;;;;;;32.75;27.25;;;;;28.85;44.02;101949.25;5019146;28;46411;-79
2021/06/09 08:07:51;;;;;;;;;23.25;23.25;;;;;30.13;43.35;101951.31;5008779;28;45426;-78
2021/06/09 08:10:16;;;;;;;;;34.25;27.50;;;;;31.60;40.10;101950.53;5012433;28;45430;-79
2021/06/09 08:12:42;;;;;;;;;22.75;20.50;;;;;33.34;40.05;101943.63;5011693;28;45505;-79
2021/06/09 08:15:09;;;;;;;;;22.75;17.75;;;;;34.50;37.39;101948.31;5012570;28;45618;-79
2021/06/09 08:17:35;;;;;;;;;20.75;19.25;;;;;35.92;35.40;101953.63;5009538;28;45703;-79
2021/06/09 08:20:01;;;;;;;;;18.75;18.00;;;;;36.52;33.83;101951.94;5012566;28;45682;-79
2021/06/09 08:22:27;;;;;;;;;22.00;19.50;;;;;36.34;32.85;101957.16;5012126;28;46646;-79
2021/06/09 08:24:52;;;;;;;;;16.75;16.00;;;;;36.16;33.18;101959.63;5013389;28;45540;-79
2021/06/09 08:27:17;;;;;;;;;18.00;15.75;;;;;37.19;32.69;101946.50;5007556;28;45787;-79
2021/06/09 08:29:43;;;;;;;;;20.25;17.25;;;;;38.94;31.65;101948.03;5010588;28;45667;-79
2021/06/09 08:32:08;;;;;;;;;20.00;15.50;;;;;41.14;28.36;101956.00;5012678;28;45408;-78
2021/06/09 08:34:34;;;;;;;;;15.25;13.50;;;;;43.13;27.06;101948.84;5010049;28;46445;-79
2021/06/09 08:37:00;;;;;;;;;16.75;15.50;;;;;44.94;25.23;101956.97;5008670;28;45520;-79
2021/06/09 08:39:26;;;;;;;;;11.50;11.50;;;;;46.35;23.73;101966.22;5010154;28;45482;-79
2021/06/09 08:41:55;;;;;;;;;12.00;11.50;;;;;46.70;22.18;101973.78;5003233;28;45288;-79
2021/06/09 08:44:21;;;;;;;;;10.50;9.25;;;;;47.71;21.62;101966.31;5012608;28;45299;-79
2021/06/09 08:46:48;;;;;;;;;9.00;8.75;;;;;48.89;21.07;101968.31;5009014;28;45993;-79
2021/06/09 08:49:16;;;;;;;;;11.75;11.75;;;;;50.58;19.81;101964.94;5011069;28;45603;-80
2021/06/09 08:51:41;;;;;;;;;12.50;10.00;;;;;52.01;18.23;101968.53;5007754;28;45473;-79
2021/06/09 08:54:08;;;;;;;;;9.25;8.50;;;;;53.09;17.49;101961.78;5013124;28;46215;-82
2021/06/09 08:56:36;;;;;;;;;10.50;10.50;;;;;54.15;16.22;101970.97;5010070;28;45300;-82
2021/06/09 08:59:01;;;;;;;;;7.50;7.50;;;;;55.00;15.75;101975.91;5012116;28;45505;-80
2021/06/09 09:01:27;;;;;;;;;7.00;7.00;;;;;55.57;15.10;101974.63;5011538;28;45487;-80
2021/06/09 09:03:53;;;;;;;;;8.75;8.50;;;;;56.34;14.36;101977.97;5009254;28;45607;-80
2021/06/09 09:06:20;;;;;;;;;8.25;8.25;;;;;56.70;13.72;101978.13;5009749;28;45521;-80
2021/06/09 09:08:45;;;;;;;;;8.50;5.75;;;;;57.32;13.41;101975.31;5006993;28;45533;-77
2021/06/09 09:11:11;;;;;;;;;5.00;4.25;;;;;57.98;12.78;101989.09;5013731;28;45439;-79
2021/06/09 09:13:36;;;;;;;;;7.00;7.00;;;;;58.20;12.42;101987.72;5013040;28;46545;-81
2021/06/09 09:16:02;;;;;;;;;8.00;8.00;;;;;57.53;12.36;101990.13;5019183;28;45530;-77
2021/06/09 09:18:54;;;;;;;;;9.00;8.50;;;;;57.57;12.14;101991.06;5018805;28;45469;-77
2021/06/09 09:21:41;;;;;;;;;8.00;8.00;;;;;57.53;12.22;101992.94;5017452;28;45476;-75
2021/06/09 09:24:09;;;;;;;;;8.50;7.00;;;;;56.46;12.17;101994.97;5010791;28;48224;-78
2021/06/09 09:26:36;;;;;;;;;17.00;16.00;;;;;55.51;12.47;101990.94;5006525;28;45514;-79
2021/06/09 09:29:16;;;;;;;;;7.75;7.50;;;;;54.43;12.88;101987.47;5013065;28;45536;-75
2021/06/09 09:31:46;;;;;;;;;9.50;7.25;;;;;53.96;13.66;101988.16;5012521;28;45512;-78
2021/06/09 09:34:43;;;;;;;;;9.00;7.50;;;;;53.34;13.29;101993.97;5014852;28;46633;-81
2021/06/09 09:37:14;;;;;;;;;7.00;5.25;;;;;52.48;14.24;101991.50;5013570;28;45492;-79
2021/06/09 09:39:43;;;;;;;;;8.00;8.00;;;;;51.39;13.84;101987.81;5012900;28;45778;-77
2021/06/09 09:42:21;;;;;;;;;7.25;5.00;;;;;50.52;14.09;101999.75;5013256;28;46586;-79
2021/06/09 09:44:47;;;;;;;;;4.00;4.00;;;;;50.03;14.36;101990.69;5009072;28;45566;-81
2021/06/09 09:47:24;;;;;;;;;4.75;4.50;;;;;49.71;15.04;101998.97;5011836;28;45530;-85
2021/06/09 09:49:51;;;;;;;;;2.00;2.00;;;;;49.58;13.75;101992.13;5007678;28;46754;-80
2021/06/09 09:52:17;;;;;;;;;3.50;3.50;;;;;49.50;14.31;101987.22;5016984;28;45585;-82
2021/06/09 09:54:44;;;;;;;;;3.00;3.00;;;;;49.17;14.68;101991.75;5011335;28;45589;-84
2021/06/09 09:57:13;;;;;;;;;4.00;3.75;;;;;49.19;14.89;101995.94;5013213;28;47651;-81
2021/06/09 09:59:39;;;;;;;;;5.25;3.75;;;;;49.00;14.50;101984.66;5016355;28;45475;-81
2021/06/09 10:02:14;;;;;;;;;2.25;1.00;;;;;48.68;14.34;101989.97;5012159;28;45541;-81
2021/06/09 10:04:40;;;;;;;;;2.50;2.50;;;;;48.03;14.35;101979.84;5009856;28;46995;-80
2021/06/09 10:07:09;;;;;;;;;2.00;2.00;;;;;46.88;15.11;101985.44;5010094;28;45859;-83
2021/06/09 10:09:35;;;;;;;;;2.75;2.75;;;;;45.97;15.69;101981.44;5008954;28;45745;-80
2021/06/09 10:12:07;;;;;;;;;3.33;3.33;;;;;44.96;15.65;101979.75;5017979;28;45477;-84
2021/06/09 10:14:41;;;;;;;;;4.50;4.00;;;;;43.87;16.99;101978.94;5016709;28;46579;-82
2021/06/09 10:17:12;;;;;;;;;4.25;4.00;;;;;43.06;17.33;101978.59;5021225;28;45615;-79
2021/06/09 10:19:46;;;;;;;;;4.00;4.00;;;;;42.26;17.28;101987.94;5018103;28;45379;-81
2021/06/09 10:22:23;;;;;;;;;7.75;5.25;;;;;41.68;17.89;101980.66;5011713;28;45482;-80
2021/06/09 10:24:58;;;;;;;;;7.50;6.00;;;;;41.33;18.21;101967.72;5013353;28;48035;-81
2021/06/09 10:27:48;;;;;;;;;7.75;5.25;;;;;40.85;18.68;101976.19;5013683;28;45617;-80
2021/06/09 10:30:17;;;;;;;;;6.50;4.25;;;;;40.50;18.99;101984.38;5013365;28;45384;-80
2021/06/09 10:32:51;;;;;;;;;3.50;2.75;;;;;40.26;19.27;101973.28;5023770;28;45352;-80
2021/06/09 10:35:18;;;;;;;;;4.25;4.25;;;;;40.07;19.66;101964.19;5001235;28;45474;-81
2021/06/09 10:37:48;;;;;;;;;3.75;3.75;;;;;39.83;19.74;101973.38;5015555;28;45513;-81
2021/06/09 10:40:17;;;;;;;;;4.00;4.00;;;;;39.30;20.15;101974.78;5013054;28;45476;-83
2021/06/09 10:42:45;;;;;;;;;8.00;5.00;;;;;38.67;20.18;101965.78;5014517;28;45529;-79
2021/06/09 10:45:11;;;;;;;;;3.00;3.00;;;;;38.24;20.89;101959.06;5014945;28;46294;-82
2021/06/09 10:47:38;;;;;;;;;3.00;2.25;;;;;38.09;21.21;101962.09;5015588;28;45552;-83
2021/06/09 10:50:08;;;;;;;;;3.50;3.25;;;;;37.81;21.14;101958.81;5015304;28;45593;-81
2021/06/09 10:52:34;;;;;;;;;3.75;3.75;;;;;37.50;21.74;101959.56;5017566;28;45626;-81
2021/06/09 10:55:03;;;;;;;;;3.25;3.25;;;;;37.09;21.50;101958.75;5015711;28;46368;-81
2021/06/09 10:57:29;;;;;;;;;4.50;4.00;;;;;36.70;21.79;101956.81;5013505;28;45663;-81
2021/06/09 10:59:55;;;;;;;;;7.75;4.50;;;;;36.52;22.49;101948.38;5014162;28;45560;-81
2021/06/09 11:02:23;;;;;;;;;4.25;3.25;;;;;36.46;22.73;101955.50;5013729;28;45520;-80
2021/06/09 11:04:52;;;;;;;;;4.50;4.25;;;;;36.41;22.39;101947.09;5011688;28;46301;-83
2021/06/09 11:07:31;;;;;;;;;4.00;4.00;;;;;36.16;22.74;101952.25;5011422;28;45600;-82
2021/06/09 11:10:05;;;;;;;;;3.00;3.00;;;;;35.95;22.95;101949.66;4955853;28;46103;-79
2021/06/09 11:12:38;;;;;;;;;5.50;3.25;;;;;35.70;23.08;101943.81;4974569;28;45547;-79
2021/06/09 11:15:09;;;;;;;;;4.25;3.25;;;;;35.47;23.69;101953.16;4972800;28;46686;-80
2021/06/09 11:17:46;;;;;;;;;6.25;6.25;;;;;35.35;23.39;101946.56;4979655;28;45697;-79
2021/06/09 11:20:17;;;;;;;;;2.75;2.75;;;;;35.34;23.83;101939.38;4973539;28;45642;-78
2021/06/09 11:23:10;;;;;;;;;3.50;3.50;;;;;35.34;24.06;101944.84;4973499;28;45340;-79
2021/06/09 11:25:40;;;;;;;;;4.00;4.00;;;;;35.19;23.80;101941.41;4970638;28;45523;-78
2021/06/09 11:28:33;;;;;;;;;5.00;3.00;;;;;34.92;24.74;101943.03;4972685;28;45945;-78
2021/06/09 11:31:09;;;;;;;;;3.75;3.00;;;;;34.85;24.62;101939.41;4972377;28;45394;-77